createdAt,value
2018-06-01T00:00:32.420Z,2.70
2018-06-01T00:05:36.239Z,3.37
2018-06-01T00:10:39.152Z,3.30
2018-06-01T00:15:42.086Z,3.60
2018-06-01T00:20:45.330Z,2.73
2018-06-01T00:25:48.241Z,3.50
2018-06-01T00:30:51.340Z,3.50
2018-06-01T00:35:55.037Z,3.00
2018-06-01T00:40:58.431Z,3.00
2018-06-01T00:46:01.700Z,4.43
2018-06-01T00:51:04.629Z,3.70
2018-06-01T00:56:08.096Z,3.17
2018-06-01T01:01:11.278Z,3.97
2018-06-01T01:06:14.675Z,3.37
2018-06-01T01:11:18.009Z,2.70
2018-06-01T01:16:21.453Z,3.90
2018-06-01T01:21:24.586Z,3.47
2018-06-01T01:26:27.930Z,3.30
2018-06-01T01:31:31.231Z,3.80
2018-06-01T01:36:34.416Z,4.70
2018-06-01T01:41:37.578Z,3.50
2018-06-01T01:46:41.006Z,3.00
2018-06-01T01:51:44.302Z,2.80
2018-06-01T01:56:47.476Z,2.83
2018-06-01T02:01:50.789Z,3.50
2018-06-01T02:06:54.217Z,3.20
2018-06-01T02:11:57.522Z,4.00
2018-06-01T02:17:00.780Z,3.10
2018-06-01T02:22:03.777Z,3.17
2018-06-01T02:27:07.394Z,2.97
2018-06-01T02:32:10.397Z,3.50
2018-06-01T02:37:13.429Z,4.30
2018-06-01T02:42:16.528Z,2.93
2018-06-01T02:47:20.003Z,3.03
2018-06-01T02:52:24.780Z,2.83
2018-06-01T02:57:29.405Z,2.93
2018-06-01T03:02:32.698Z,3.33
2018-06-01T03:07:35.820Z,2.30
2018-06-01T03:12:39.142Z,3.20
2018-06-01T03:17:42.373Z,2.60
2018-06-01T03:22:45.266Z,3.33
2018-06-01T03:27:48.866Z,2.90
2018-06-01T03:32:52.195Z,2.00
2018-06-01T03:37:55.439Z,1.87
2018-06-01T03:42:58.628Z,2.40
2018-06-01T03:48:01.766Z,3.63
2018-06-01T03:53:04.740Z,3.40
2018-06-01T03:58:07.908Z,1.80
2018-06-01T04:03:11.213Z,2.60
2018-06-01T04:08:14.125Z,2.27
2018-06-01T04:13:17.714Z,2.53
2018-06-01T04:18:21.298Z,2.47
2018-06-01T04:23:24.248Z,2.67
2018-06-01T04:28:27.427Z,2.50
2018-06-01T04:33:30.420Z,2.87
2018-06-01T04:38:33.315Z,2.97
2018-06-01T04:43:37.120Z,2.93
2018-06-01T04:48:40.321Z,3.23
2018-06-01T04:53:47.153Z,2.93
2018-06-01T04:58:50.544Z,2.60
2018-06-01T05:03:54.105Z,2.67
2018-06-01T05:08:57.604Z,2.53
2018-06-01T05:14:00.613Z,3.20
2018-06-01T05:19:04.791Z,2.50
2018-06-01T05:24:08.066Z,2.00
2018-06-01T05:29:10.936Z,3.07
2018-06-01T05:34:19.176Z,2.40
2018-06-01T05:39:22.589Z,3.10
2018-06-01T05:44:25.442Z,3.13
2018-06-01T05:49:28.939Z,2.50
2018-06-01T05:54:31.846Z,2.20
2018-06-01T05:59:34.717Z,2.60
2018-06-01T06:04:38.549Z,2.47
2018-06-01T06:09:41.529Z,3.17
2018-06-01T06:14:44.452Z,2.60
2018-06-01T06:19:47.498Z,3.47
2018-06-01T06:24:50.465Z,2.73
2018-06-01T06:29:53.363Z,2.43
2018-06-01T06:34:56.159Z,3.17
2018-06-01T06:39:59.220Z,2.60
2018-06-01T06:45:02.045Z,3.00
2018-06-01T06:50:05.283Z,3.70
2018-06-01T06:55:08.219Z,2.67
2018-06-01T07:00:11.074Z,3.00
2018-06-01T07:05:14.062Z,2.80
2018-06-01T07:10:17.213Z,2.43
2018-06-01T07:15:20.077Z,3.63
2018-06-01T07:20:23.313Z,3.27
2018-06-01T07:25:27.110Z,2.77
2018-06-01T07:30:30.006Z,3.20
2018-06-01T07:35:33.069Z,4.07
2018-06-01T07:40:36.410Z,2.37
2018-06-01T07:45:39.328Z,2.43
2018-06-01T07:50:42.272Z,3.93
2018-06-01T07:55:45.601Z,3.30
2018-06-01T08:00:48.517Z,3.40
2018-06-01T08:05:52.096Z,2.80
2018-06-01T08:10:55.875Z,3.43
2018-06-01T08:15:59.107Z,3.57
2018-06-01T08:21:05.544Z,2.13
2018-06-01T08:26:08.466Z,3.13
2018-06-01T08:31:11.348Z,3.13
2018-06-01T08:36:14.542Z,2.67
2018-06-01T08:41:17.540Z,3.40
2018-06-01T08:46:20.469Z,3.13
2018-06-01T08:51:23.404Z,2.90
2018-06-01T08:56:26.345Z,3.50
2018-06-01T09:01:29.299Z,2.77
2018-06-01T09:06:32.822Z,3.60
2018-06-01T09:11:35.786Z,2.63
2018-06-01T09:16:39.048Z,4.33
2018-06-01T09:21:43.184Z,3.00
2018-06-01T09:26:46.169Z,3.63
2018-06-01T09:31:49.273Z,2.60
2018-06-01T09:36:52.332Z,3.03
2018-06-01T09:41:55.361Z,3.33
2018-06-01T09:47:05.194Z,3.87
2018-06-01T09:52:09.118Z,2.87
2018-06-01T09:57:12.098Z,3.17
2018-06-01T10:02:15.043Z,2.40
2018-06-01T10:07:18.045Z,3.73
2018-06-01T10:12:20.946Z,3.17
2018-06-01T10:17:24.164Z,3.27
2018-06-01T10:22:27.422Z,3.80
2018-06-01T10:27:30.270Z,3.73
2018-06-01T10:32:33.213Z,3.67
2018-06-01T10:37:36.992Z,4.00
2018-06-01T10:42:40.100Z,4.13
2018-06-01T10:47:42.981Z,4.67
2018-06-01T10:52:46.562Z,3.33
2018-06-01T10:57:49.806Z,3.70
2018-06-01T11:02:52.724Z,4.40
2018-06-01T11:07:56.194Z,3.07
2018-06-01T11:12:59.064Z,3.83
2018-06-01T11:18:02.043Z,3.13
2018-06-01T11:23:05.361Z,3.10
2018-06-01T11:28:08.269Z,3.13
2018-06-01T11:33:11.201Z,3.60
2018-06-01T11:38:14.146Z,3.00
2018-06-01T11:43:17.045Z,3.60
2018-06-01T11:48:25.030Z,3.70
2018-06-01T11:53:30.172Z,3.10
2018-06-01T11:58:33.262Z,3.90
2018-06-01T12:03:36.240Z,3.30
2018-06-01T12:08:39.474Z,3.30
2018-06-01T12:13:42.403Z,3.27
2018-06-01T12:18:45.284Z,3.47
2018-06-01T12:23:48.529Z,2.40
2018-06-01T12:28:51.401Z,3.40
2018-06-01T12:33:54.300Z,3.77
2018-06-01T12:38:57.208Z,2.63
2018-06-01T12:44:00.125Z,3.10
2018-06-01T12:49:03.020Z,3.00
2018-06-01T12:54:06.262Z,2.80
2018-06-01T12:59:09.311Z,3.70
2018-06-01T13:04:12.238Z,3.13
2018-06-01T13:09:15.305Z,3.17
2018-06-01T13:14:18.471Z,2.60
2018-06-01T13:19:21.324Z,3.30
2018-06-01T13:24:24.609Z,3.37
2018-06-01T13:29:27.699Z,3.03
2018-06-01T13:34:30.622Z,3.40
2018-06-01T13:39:33.549Z,3.07
2018-06-01T13:44:37.920Z,2.63
2018-06-01T13:49:40.857Z,3.33
2018-06-01T13:54:43.837Z,2.80
2018-06-01T13:59:52.871Z,3.00
2018-06-01T14:04:58.891Z,2.90
2018-06-01T14:10:02.581Z,3.23
2018-06-01T14:15:05.818Z,2.80
2018-06-01T14:20:08.788Z,2.67
2018-06-01T14:25:11.798Z,3.17
2018-06-01T14:30:17.561Z,2.40
2018-06-01T14:35:20.515Z,2.93
2018-06-01T14:40:24.011Z,3.20
2018-06-01T14:45:27.183Z,3.33
2018-06-01T14:50:30.094Z,3.07
2018-06-01T14:55:33.071Z,2.90
2018-06-01T15:00:36.108Z,2.90
2018-06-01T15:05:39.007Z,3.17
2018-06-01T15:10:42.448Z,2.90
2018-06-01T15:15:45.481Z,3.13
2018-06-01T15:20:48.669Z,3.30
2018-06-01T15:25:51.597Z,3.43
2018-06-01T15:30:54.632Z,3.20
2018-06-01T15:35:57.853Z,3.23
2018-06-01T15:41:03.111Z,3.30
2018-06-01T15:46:06.710Z,3.50
2018-06-01T15:51:10.140Z,3.50
2018-06-01T15:56:13.114Z,4.00
2018-06-01T16:01:16.175Z,4.07
2018-06-01T16:06:23.908Z,3.70
2018-06-01T16:11:28.028Z,3.07
2018-06-01T16:16:33.504Z,3.50
2018-06-01T16:21:37.402Z,3.63
2018-06-01T16:26:40.752Z,3.77
2018-06-01T16:31:43.795Z,3.30
2018-06-01T16:36:46.712Z,3.37
2018-06-01T16:41:49.955Z,3.03
2018-06-01T16:46:53.180Z,3.63
2018-06-01T16:51:56.121Z,3.80
2018-06-01T16:56:59.246Z,3.50
2018-06-01T17:02:02.913Z,3.57
2018-06-01T17:07:06.002Z,3.27
2018-06-01T17:12:09.438Z,4.40
2018-06-01T17:17:12.445Z,4.23
2018-06-01T17:22:15.566Z,3.50
2018-06-01T17:27:18.656Z,3.00
2018-06-01T17:32:21.636Z,3.90
2018-06-01T17:37:24.879Z,3.20
2018-06-01T17:42:31.133Z,3.57
2018-06-01T17:47:38.629Z,2.97
2018-06-01T17:52:42.060Z,3.73
2018-06-01T17:57:44.988Z,2.97
2018-06-01T18:02:48.112Z,4.10
2018-06-01T18:07:51.120Z,3.37
2018-06-01T18:12:54.842Z,3.40
2018-06-01T18:17:58.109Z,3.40
2018-06-01T18:23:01.448Z,3.73
2018-06-01T18:28:04.587Z,3.93
2018-06-01T18:33:07.842Z,3.73
2018-06-01T18:38:11.284Z,3.43
2018-06-01T18:43:15.190Z,4.10
2018-06-01T18:48:18.842Z,3.83
2018-06-01T18:53:22.182Z,3.70
2018-06-01T18:58:25.506Z,3.40
2018-06-01T19:03:28.878Z,4.00
2018-06-01T19:08:32.289Z,4.17
2018-06-01T19:13:36.291Z,3.70
2018-06-01T19:18:39.859Z,3.97
2018-06-01T19:23:43.394Z,3.37
2018-06-01T19:28:46.696Z,3.70
2018-06-01T19:33:50.065Z,3.97
2018-06-01T19:38:53.531Z,3.73
2018-06-01T19:43:57.601Z,4.40
2018-06-01T19:49:01.507Z,3.90
2018-06-01T19:54:04.855Z,3.70
2018-06-01T19:59:08.099Z,4.23
2018-06-01T20:04:11.573Z,4.30
2018-06-01T20:09:14.772Z,4.27
2018-06-01T20:14:18.533Z,4.53
2018-06-01T20:19:21.855Z,4.03
2018-06-01T20:24:24.895Z,4.30
2018-06-01T20:29:27.903Z,4.73
2018-06-01T20:34:30.837Z,4.20
2018-06-01T20:39:33.846Z,4.67
2018-06-01T20:44:37.138Z,4.90
2018-06-01T20:49:40.409Z,4.83
2018-06-01T20:54:43.354Z,4.50
2018-06-01T20:59:51.462Z,4.50
2018-06-01T21:04:54.731Z,4.90
2018-06-01T21:09:57.640Z,5.67
2018-06-01T21:15:01.110Z,4.10
2018-06-01T21:20:04.215Z,4.20
2018-06-01T21:25:07.577Z,4.10
2018-06-01T21:30:14.239Z,5.27
2018-06-01T21:35:17.185Z,4.90
2018-06-01T21:40:21.702Z,4.40
2018-06-01T21:45:25.040Z,4.97
2018-06-01T21:50:28.015Z,4.23
2018-06-01T21:55:31.898Z,4.47
2018-06-01T22:00:35.428Z,4.60
2018-06-01T22:05:38.331Z,4.17
2018-06-01T22:10:45.537Z,4.70
2018-06-01T22:15:55.299Z,4.57
2018-06-01T22:20:58.432Z,3.90
2018-06-01T22:26:01.640Z,4.20
2018-06-01T22:31:04.786Z,4.03
2018-06-01T22:36:07.675Z,4.03
2018-06-01T22:41:11.417Z,4.50
2018-06-01T22:46:14.606Z,3.72
2018-06-01T22:51:17.663Z,4.13
2018-06-01T22:56:20.762Z,4.23
2018-06-01T23:01:24.225Z,4.60
2018-06-01T23:06:27.388Z,4.87
2018-06-01T23:11:30.291Z,4.40
2018-06-01T23:16:33.745Z,3.70
2018-06-01T23:21:37.040Z,4.87
2018-06-01T23:26:39.963Z,5.40
2018-06-01T23:31:43.867Z,5.30
2018-06-01T23:36:46.910Z,6.73
2018-06-01T23:41:49.781Z,5.90
2018-06-01T23:46:52.968Z,5.83
2018-06-01T23:51:55.984Z,7.27
2018-06-01T23:56:58.865Z,4.20
